Time;durP1;ratioP1;P1;durP2;ratioP2;P2;SDS_P1;SDS_P2;PMS_P1;PMS_P2;Temp;Humidity;BMP_temperature;BMP_pressure;BME280_temperature;BME280_humidity;BME280_pressure;Samples;Min_cycle;Max_cycle;Signal;HPM_P1;HPM_P2
2022/09/24 00:00:58;;;;;;;2.05;1.88;;;14.90;83.80;;;;;;5058284;28;20054;-92
2022/09/24 00:03:27;;;;;;;3.58;2.60;;;14.90;83.70;;;;;;5057430;28;20025;-86
2022/09/24 00:05:52;;;;;;;2.60;2.30;;;14.90;83.90;;;;;;5037200;28;20028;-91
2022/09/24 00:08:19;;;;;;;2.60;2.40;;;14.90;83.90;;;;;;5056840;28;20112;-91
2022/09/24 00:10:47;;;;;;;2.50;2.30;;;14.90;83.90;;;;;;5057874;28;20517;-90
2022/09/24 00:13:16;;;;;;;3.05;2.28;;;14.90;83.90;;;;;;5066016;28;20052;-89
2022/09/24 00:15:45;;;;;;;3.97;2.28;;;14.80;83.90;;;;;;5067413;28;20087;-89
2022/09/24 00:18:13;;;;;;;2.45;2.22;;;14.80;84.00;;;;;;5057898;28;20056;-89
2022/09/24 00:20:39;;;;;;;2.40;2.20;;;14.90;84.10;;;;;;5036600;28;20119;-90
2022/09/24 00:23:08;;;;;;;3.10;2.40;;;14.80;84.10;;;;;;5035993;28;20543;-89
2022/09/24 00:28:33;;;;;;;2.20;2.00;;;14.80;84.00;;;;;;5038528;28;20082;-85
2022/09/24 00:31:05;;;;;;;2.10;1.85;;;14.90;84.10;;;;;;5030924;28;20512;-85
2022/09/24 00:33:33;;;;;;;2.67;2.03;;;14.80;84.10;;;;;;5021032;28;20065;-85
2022/09/24 00:36:01;;;;;;;2.28;1.80;;;14.80;84.10;;;;;;5036403;28;20549;-85
2022/09/24 00:38:28;;;;;;;2.40;1.75;;;14.80;84.10;;;;;;5035471;28;20029;-86
2022/09/24 00:40:54;;;;;;;1.88;1.77;;;14.80;84.30;;;;;;5034913;28;20088;-86
2022/09/24 00:43:21;;;;;;;2.00;1.77;;;14.80;84.30;;;;;;5035429;28;20044;-82
2022/09/24 00:45:48;;;;;;;1.70;1.60;;;14.80;84.30;;;;;;5036229;28;20034;-84
2022/09/24 00:48:14;;;;;;;1.67;1.35;;;14.80;84.20;;;;;;5035051;28;20029;-85
2022/09/24 00:50:40;;;;;;;1.67;1.58;;;14.80;84.10;;;;;;5036509;28;20609;-82
2022/09/24 00:53:12;;;;;;;1.60;1.50;;;14.90;84.30;;;;;;5051463;28;20449;-85
2022/09/24 00:55:40;;;;;;;1.63;1.50;;;14.80;84.20;;;;;;5054587;28;20064;-85
2022/09/24 00:58:08;;;;;;;1.85;1.50;;;14.80;84.20;;;;;;5055685;28;20415;-88
2022/09/24 01:00:36;;;;;;;3.03;1.45;;;14.80;84.10;;;;;;5054364;28;20128;-86
2022/09/24 01:03:24;;;;;;;1.90;1.75;;;14.90;84.30;;;;;;5055888;28;20028;-83
2022/09/24 01:05:50;;;;;;;1.45;1.33;;;14.80;84.20;;;;;;5054873;28;20457;-86
2022/09/24 01:17:24;;;;;;;1.20;1.10;;;14.80;84.20;;;;;;3263323;22;20054;-87
2022/09/24 01:20:16;;;;;;;1.73;1.10;;;14.80;84.10;;;;;;4987889;28;20038;-88
2022/09/24 01:22:57;;;;;;;1.27;1.17;;;14.70;84.10;;;;;;4985879;28;20065;-88
2022/09/24 01:25:32;;;;;;;1.10;1.00;;;14.70;84.20;;;;;;4986659;28;20074;-88
2022/09/24 01:28:05;;;;;;;1.92;1.38;;;14.70;84.30;;;;;;4986328;28;20039;-89
2022/09/24 01:30:34;;;;;;;0.90;0.90;;;14.70;84.20;;;;;;4983840;28;20039;-89
2022/09/24 01:33:12;;;;;;;1.27;1.10;;;14.70;84.20;;;;;;4985993;28;20421;-88
2022/09/24 01:35:49;;;;;;;1.00;1.00;;;14.70;84.40;;;;;;4988591;28;20046;-90
2022/09/24 01:38:20;;;;;;;2.22;1.13;;;14.70;84.30;;;;;;4990130;28;20270;-90
2022/09/24 01:40:48;;;;;;;0.80;0.80;;;14.60;84.20;;;;;;4987809;28;20398;-92
2022/09/24 01:43:18;;;;;;;1.67;0.90;;;14.60;84.30;;;;;;4985922;28;20038;-87
2022/09/24 01:45:44;;;;;;;0.70;0.70;;;14.70;84.40;;;;;;4988499;28;20128;-90
2022/09/24 01:48:15;;;;;;;0.85;0.85;;;14.60;84.40;;;;;;5514574;22;21153;31
2022/09/24 01:50:52;;;;;;;1.08;0.88;;;14.60;84.50;;;;;;4949591;28;20074;-86
2022/09/24 01:53:28;;;;;;;0.60;0.60;;;14.60;84.50;;;;;;4979605;28;20038;-91
2022/09/24 01:56:01;;;;;;;0.68;0.68;;;14.60;84.50;;;;;;4981279;28;20062;-90
2022/09/24 01:58:54;;;;;;;1.35;0.70;;;14.60;84.50;;;;;;4984143;28;20030;-91
2022/09/24 02:01:56;;;;;;;0.70;0.70;;;14.60;84.40;;;;;;4954102;28;20100;-90
2022/09/24 02:04:26;;;;;;;0.98;0.90;;;14.60;84.40;;;;;;4983599;28;20518;-89
2022/09/24 02:06:59;;;;;;;1.38;0.60;;;14.60;84.30;;;;;;4987208;28;20034;-91
2022/09/24 02:09:33;;;;;;;0.88;0.60;;;14.60;84.40;;;;;;4967362;28;20122;-90
2022/09/24 02:12:06;;;;;;;1.35;0.50;;;14.50;84.40;;;;;;4968082;28;20034;-92
2022/09/24 02:14:39;;;;;;;0.50;0.50;;;14.50;84.30;;;;;;4986088;28;20315;-90
2022/09/24 02:17:06;;;;;;;0.60;0.60;;;14.50;84.20;;;;;;4982428;28;20061;-85
2022/09/24 02:19:35;;;;;;;0.88;0.70;;;14.50;84.90;;;;;;4966526;28;20035;-91
2022/09/24 02:22:03;;;;;;;0.40;0.40;;;14.50;84.30;;;;;;4983620;28;20053;-88
2022/09/24 02:24:42;;;;;;;0.38;0.38;;;14.50;84.20;;;;;;4986726;28;20417;-90
2022/09/24 02:27:08;;;;;;;1.70;0.75;;;14.50;84.10;;;;;;4986529;28;20117;-91
2022/09/24 02:29:34;;;;;;;0.50;0.50;;;14.50;84.10;;;;;;4953159;28;20045;-87
2022/09/24 02:32:02;;;;;;;0.40;0.40;;;14.40;83.90;;;;;;4985708;28;20109;-91
2022/09/24 02:34:37;;;;;;;0.32;0.32;;;14.40;84.00;;;;;;4954540;28;20034;-90
2022/09/24 02:37:09;;;;;;;0.55;0.25;;;14.40;84.00;;;;;;4983716;28;20035;-84
2022/09/24 02:39:35;;;;;;;0.20;0.20;;;14.40;84.00;;;;;;4969479;28;20118;-86
2022/09/24 02:42:04;;;;;;;0.63;0.45;;;14.40;83.90;;;;;;4990686;28;20042;-84
2022/09/24 02:44:31;;;;;;;0.20;0.20;;;14.40;83.80;;;;;;4987386;28;20409;-90
2022/09/24 02:46:58;;;;;;;0.30;0.30;;;14.40;84.00;;;;;;4984650;28;20046;-85
2022/09/24 02:49:24;;;;;;;0.30;0.30;;;14.40;83.80;;;;;;4983776;28;20093;-89
2022/09/24 02:51:50;;;;;;;0.30;0.30;;;14.30;83.70;;;;;;4996010;28;20030;-88
2022/09/24 02:54:16;;;;;;;1.85;0.38;;;14.30;83.80;;;;;;4997650;28;20034;-88
2022/09/24 02:56:42;;;;;;;0.28;0.28;;;14.20;83.90;;;;;;4969426;28;20082;-90
2022/09/24 02:59:08;;;;;;;0.20;0.20;;;14.20;84.20;;;;;;4983263;28;20521;-84
2022/09/24 03:01:35;;;;;;;0.30;0.30;;;14.20;84.30;;;;;;4985375;28;20061;-86
2022/09/24 03:04:01;;;;;;;0.43;0.20;;;14.20;84.50;;;;;;4981482;28;20181;-81
2022/09/24 03:06:28;;;;;;;0.20;0.20;;;14.20;84.50;;;;;;4983670;28;20448;-89
2022/09/24 03:08:55;;;;;;;0.30;0.30;;;14.10;84.50;;;;;;4964734;28;20034;-88
2022/09/24 03:11:21;;;;;;;0.25;0.25;;;14.10;84.60;;;;;;4966782;28;20030;-84
2022/09/24 03:13:47;;;;;;;0.25;0.22;;;14.10;84.70;;;;;;4983942;28;20030;-94
2022/09/24 03:16:15;;;;;;;0.52;0.20;;;14.10;84.70;;;;;;4990993;28;20051;-92
2022/09/24 03:18:41;;;;;;;0.35;0.32;;;14.10;84.80;;;;;;4987057;28;21339;-82
2022/09/24 03:21:10;;;;;;;0.20;0.20;;;14.10;84.70;;;;;;4965540;28;20031;-89
2022/09/24 03:23:37;;;;;;;0.35;0.35;;;14.00;84.70;;;;;;4982826;28;20413;-88
2022/09/24 03:26:03;;;;;;;0.30;0.30;;;14.10;84.60;;;;;;4981989;28;20045;-87
2022/09/24 03:28:30;;;;;;;0.68;0.28;;;14.10;84.60;;;;;;4964917;28;20086;-86
2022/09/24 03:30:59;;;;;;;0.43;0.40;;;14.10;84.60;;;;;;4952330;28;20101;-90
2022/09/24 03:33:30;;;;;;;0.32;0.30;;;14.00;84.60;;;;;;4981049;28;20042;-85
2022/09/24 03:36:06;;;;;;;0.95;0.30;;;14.00;84.70;;;;;;4968230;28;20030;-92
2022/09/24 03:38:32;;;;;;;;;;;14.00;84.50;;;;;;4985301;28;20048;-93
2022/09/24 03:40:58;;;;;;;;;;;14.00;84.50;;;;;;4985699;28;19918;-92
2022/09/24 03:43:24;;;;;;;;;;;14.10;84.30;;;;;;4993454;28;19929;-84
2022/09/24 03:45:50;;;;;;;;;;;14.00;84.20;;;;;;5009209;28;19953;-81
2022/09/24 03:48:17;;;;;;;0.30;0.30;;;14.00;84.30;;;;;;4991054;28;19917;-82
2022/09/24 03:50:44;;;;;;;0.47;0.20;;;14.00;84.40;;;;;;5007254;28;20051;-77
2022/09/24 03:53:11;;;;;;;0.80;0.35;;;13.90;84.60;;;;;;4986976;28;20085;-91
2022/09/24 03:55:45;;;;;;;0.28;0.25;;;14.00;84.80;;;;;;4987621;28;20041;-81
2022/09/24 03:58:12;;;;;;;1.33;0.20;;;13.90;84.70;;;;;;4996472;28;20308;-90
2022/09/24 04:00:38;;;;;;;0.28;0.28;;;13.90;84.70;;;;;;4952089;28;20041;-91
2022/09/24 04:03:05;;;;;;;0.32;0.25;;;13.90;84.80;;;;;;4985382;28;20027;-91
2022/09/24 04:05:31;;;;;;;0.30;0.30;;;13.90;84.80;;;;;;4985610;28;20026;-90
2022/09/24 04:07:59;;;;;;;0.22;0.22;;;13.90;85.00;;;;;;4993328;28;20034;-86
2022/09/24 04:10:25;;;;;;;0.30;0.30;;;13.90;85.00;;;;;;5003575;28;20030;-83
2022/09/24 04:12:51;;;;;;;0.38;0.30;;;13.90;85.10;;;;;;5006470;28;20043;-83
2022/09/24 04:15:18;;;;;;;0.55;0.20;;;13.90;85.10;;;;;;4988489;28;20041;-85
2022/09/24 04:17:52;;;;;;;0.50;0.25;;;13.90;85.10;;;;;;4987932;28;20089;-82
2022/09/24 04:20:22;;;;;;;0.47;0.20;;;13.90;85.20;;;;;;5005024;28;20030;-83
2022/09/24 04:22:53;;;;;;;1.45;0.20;;;14.00;85.20;;;;;;5006476;28;20038;-86
2022/09/24 04:25:20;;;;;;;0.35;0.20;;;14.00;85.20;;;;;;5004516;28;20038;-87
2022/09/24 04:27:55;;;;;;;0.20;0.20;;;14.00;85.10;;;;;;5006695;28;20018;-81
2022/09/24 04:30:23;;;;;;;0.73;0.20;;;14.00;85.00;;;;;;4992185;28;21371;-85
2022/09/24 04:32:52;;;;;;;0.20;0.20;;;14.00;84.70;;;;;;4984966;28;20034;-90
2022/09/24 04:35:19;;;;;;;0.80;0.20;;;14.00;84.50;;;;;;4982750;28;20034;-88
2022/09/24 04:37:47;;;;;;;0.40;0.20;;;14.00;84.60;;;;;;4967167;28;20084;-86
2022/09/24 04:40:14;;;;;;;0.45;0.30;;;14.00;84.70;;;;;;4984014;28;20035;-91
2022/09/24 04:42:42;;;;;;;0.22;0.20;;;14.00;84.40;;;;;;4969600;28;20034;-92
2022/09/24 04:45:09;;;;;;;0.40;0.35;;;14.00;84.40;;;;;;4961815;28;20088;-91
2022/09/24 04:47:39;;;;;;;0.75;0.20;;;14.00;84.40;;;;;;4970711;28;20472;-86
2022/09/24 04:50:07;;;;;;;0.10;0.10;;;14.00;84.40;;;;;;4981349;28;20065;-89
2022/09/24 04:52:33;;;;;;;0.30;0.20;;;14.00;84.40;;;;;;4983512;28;20042;-89
2022/09/24 04:54:59;;;;;;;0.40;0.30;;;14.00;84.50;;;;;;4968230;28;20391;-89
2022/09/24 04:57:28;;;;;;;0.35;0.10;;;14.00;84.60;;;;;;4981093;28;20409;-84
2022/09/24 04:59:54;;;;;;;0.20;0.10;;;14.00;84.60;;;;;;4980857;28;20513;-88
2022/09/24 05:02:22;;;;;;;0.65;0.20;;;14.00;84.60;;;;;;4964133;28;20129;-88
2022/09/24 05:04:48;;;;;;;2.30;0.20;;;14.00;84.40;;;;;;4981126;28;20096;-91
2022/09/24 05:07:14;;;;;;;0.30;0.30;;;14.00;84.50;;;;;;4982675;28;20042;-90
2022/09/24 05:09:40;;;;;;;0.20;0.10;;;14.00;84.50;;;;;;4979400;28;20097;-81
2022/09/24 05:12:07;;;;;;;1.25;0.20;;;14.00;84.40;;;;;;4981874;28;20042;-88
2022/09/24 05:14:33;;;;;;;0.17;0.10;;;14.00;84.50;;;;;;4982913;28;20050;-88
2022/09/24 05:16:59;;;;;;;0.28;0.20;;;14.00;84.60;;;;;;4965845;28;20038;-91
2022/09/24 05:19:24;;;;;;;0.15;0.15;;;14.10;84.50;;;;;;4963817;28;20063;-88
2022/09/24 05:21:50;;;;;;;1.35;0.20;;;14.00;84.40;;;;;;4982763;28;20035;-86
2022/09/24 05:24:17;;;;;;;0.75;0.20;;;14.00;84.40;;;;;;4981379;28;20026;-86
2022/09/24 05:29:27;;;;;;;0.45;0.20;;;14.00;84.50;;;;;;4984388;28;20034;-89
2022/09/24 05:31:53;;;;;;;0.22;0.17;;;14.00;84.60;;;;;;4988016;28;20039;-89
2022/09/24 05:34:19;;;;;;;0.55;0.20;;;14.00;84.60;;;;;;4989899;28;20026;-85
2022/09/24 05:36:44;;;;;;;0.68;0.50;;;14.10;84.70;;;;;;4984375;28;20035;-89
2022/09/24 05:39:14;;;;;;;0.85;0.20;;;14.10;84.70;;;;;;4975347;28;20035;-90
2022/09/24 05:41:40;;;;;;;0.17;0.10;;;14.10;84.70;;;;;;4972053;28;20038;-94
2022/09/24 05:44:06;;;;;;;1.42;0.20;;;14.10;84.60;;;;;;4973467;28;20439;-89
2022/09/24 05:46:32;;;;;;;0.30;0.25;;;14.10;84.50;;;;;;4968348;28;20045;-92
2022/09/24 05:48:59;;;;;;;0.73;0.40;;;14.00;84.40;;;;;;4987074;28;20101;-92
2022/09/24 05:51:27;;;;;;;0.43;0.17;;;14.10;84.50;;;;;;4987032;28;20031;-89
2022/09/24 05:53:53;;;;;;;1.02;0.35;;;14.10;84.50;;;;;;4943271;28;20041;-83
2022/09/24 05:56:19;;;;;;;0.60;0.20;;;14.00;84.30;;;;;;4987409;28;20034;-92
2022/09/24 05:58:49;;;;;;;0.73;0.20;;;14.00;84.30;;;;;;4953347;28;20069;-88
2022/09/24 06:01:15;;;;;;;1.08;0.20;;;14.00;84.10;;;;;;4989117;28;20555;-89
2022/09/24 06:03:41;;;;;;;1.23;0.40;;;14.00;84.20;;;;;;4990347;28;20065;-90
2022/09/24 06:06:07;;;;;;;0.70;0.30;;;14.00;84.20;;;;;;4985710;28;20054;-87
2022/09/24 06:08:33;;;;;;;1.77;0.40;;;14.00;84.10;;;;;;4966800;28;20042;-89
2022/09/24 06:11:01;;;;;;;1.15;0.40;;;14.00;84.10;;;;;;4965951;28;20092;-85
2022/09/24 06:13:27;;;;;;;1.33;0.50;;;14.00;84.30;;;;;;4966741;28;20452;-83
2022/09/24 06:16:03;;;;;;;1.08;0.65;;;14.00;84.30;;;;;;4964298;28;20600;-84
2022/09/24 06:18:29;;;;;;;0.47;0.47;;;14.00;84.40;;;;;;4948477;28;20030;-84
2022/09/24 06:20:59;;;;;;;0.82;0.55;;;14.00;84.40;;;;;;4984028;28;20045;-86
2022/09/24 06:23:25;;;;;;;1.35;0.65;;;14.00;84.30;;;;;;4983908;28;20041;-81
2022/09/24 06:25:50;;;;;;;1.63;0.70;;;14.00;84.20;;;;;;4953419;28;20027;-86
2022/09/24 06:28:16;;;;;;;0.70;0.70;;;13.90;83.90;;;;;;4966355;28;20062;-83
2022/09/24 06:30:42;;;;;;;1.02;0.43;;;13.90;83.90;;;;;;4962967;28;20162;-83
2022/09/24 06:33:10;;;;;;;0.77;0.68;;;13.90;84.00;;;;;;4982180;28;20398;-85
2022/09/24 06:35:41;;;;;;;1.50;0.60;;;13.90;84.10;;;;;;4982354;28;20085;-85
2022/09/24 06:38:10;;;;;;;0.88;0.40;;;13.90;84.20;;;;;;4983264;28;20038;-85
2022/09/24 06:40:37;;;;;;;1.48;0.50;;;13.80;84.00;;;;;;4983623;28;20042;-90
2022/09/24 06:43:05;;;;;;;0.60;0.30;;;13.80;84.00;;;;;;4965342;28;20038;-89
2022/09/24 06:45:31;;;;;;;2.05;0.30;;;13.80;84.00;;;;;;4985757;28;20088;-89
2022/09/24 06:47:59;;;;;;;0.57;0.40;;;13.80;83.70;;;;;;4973454;28;20038;-93
2022/09/24 06:50:27;;;;;;;0.40;0.20;;;13.80;83.60;;;;;;4984826;28;20059;-84
2022/09/24 06:52:54;;;;;;;2.22;0.50;;;13.80;83.50;;;;;;4969420;28;20097;-88
2022/09/24 06:55:20;;;;;;;2.75;0.30;;;13.80;83.60;;;;;;4984938;28;20031;-83
2022/09/24 06:57:46;;;;;;;1.15;0.40;;;13.70;83.80;;;;;;4995077;28;20061;-85
2022/09/24 07:00:14;;;;;;;1.30;0.38;;;13.70;84.00;;;;;;4982128;28;20053;-92
2022/09/24 07:02:40;;;;;;;2.17;0.50;;;13.70;84.20;;;;;;4980446;28;20034;-90
2022/09/24 07:05:08;;;;;;;0.63;0.40;;;13.70;84.40;;;;;;4996800;28;20038;-87
2022/09/24 07:07:34;;;;;;;0.85;0.30;;;13.70;84.50;;;;;;4978507;28;20090;-92
2022/09/24 07:10:05;;;;;;;0.57;0.30;;;13.70;84.30;;;;;;4987299;28;20096;-90
2022/09/24 07:12:33;;;;;;;0.70;0.30;;;13.70;84.40;;;;;;4985417;28;20069;-92
2022/09/24 07:15:00;;;;;;;0.20;0.20;;;13.70;84.20;;;;;;4982990;28;20041;-89
2022/09/24 07:17:27;;;;;;;0.73;0.20;;;13.70;84.20;;;;;;4982012;28;20042;-83
2022/09/24 07:19:53;;;;;;;0.40;0.20;;;13.70;84.20;;;;;;4982934;28;20035;-91
2022/09/24 07:22:20;;;;;;;0.60;0.38;;;13.70;84.90;;;;;;4984966;28;20115;-91
2022/09/24 07:24:46;;;;;;;0.30;0.30;;;13.70;84.50;;;;;;4966989;28;20049;-85
2022/09/24 07:27:13;;;;;;;0.90;0.30;;;13.70;84.80;;;;;;4996628;28;20143;-91
2022/09/24 07:29:39;;;;;;;0.82;0.40;;;13.80;84.90;;;;;;4986438;28;20069;-91
2022/09/24 07:32:05;;;;;;;1.30;0.20;;;13.70;84.90;;;;;;4990530;28;20035;-88
2022/09/24 07:34:31;;;;;;;0.77;0.40;;;13.70;85.00;;;;;;4970179;28;20030;-88
2022/09/24 07:36:58;;;;;;;0.30;0.30;;;13.70;84.90;;;;;;4984935;28;20382;-92
2022/09/24 07:39:24;;;;;;;0.30;0.25;;;13.70;84.80;;;;;;4984000;28;20034;-91
2022/09/24 07:41:54;;;;;;;1.38;0.47;;;13.80;84.90;;;;;;4986514;28;20046;-87
2022/09/24 07:44:24;;;;;;;0.50;0.40;;;13.80;84.80;;;;;;4957263;28;20049;-89
2022/09/24 07:46:54;;;;;;;0.55;0.40;;;13.80;84.70;;;;;;4958734;28;20038;-90
2022/09/24 07:49:23;;;;;;;0.50;0.30;;;13.80;84.60;;;;;;4984205;28;20059;-79
2022/09/24 07:51:49;;;;;;;0.60;0.40;;;13.80;84.70;;;;;;4981239;28;20034;-85
2022/09/24 07:54:15;;;;;;;0.38;0.30;;;13.70;86.00;;;;;;4993287;28;20030;-85
2022/09/24 07:56:41;;;;;;;1.00;0.40;;;13.80;85.70;;;;;;4985580;28;20022;-87
2022/09/24 07:59:10;;;;;;;0.98;0.28;;;13.90;85.60;;;;;;4985480;28;20058;-89
2022/09/24 08:01:36;;;;;;;0.77;0.40;;;13.90;84.80;;;;;;4985963;28;20041;-84
2022/09/24 08:04:06;;;;;;;0.70;0.25;;;13.90;84.70;;;;;;4960477;28;20141;-83
2022/09/24 08:06:35;;;;;;;0.75;0.68;;;14.00;84.60;;;;;;4982181;28;20030;-85
2022/09/24 08:09:02;;;;;;;0.32;0.30;;;13.90;84.60;;;;;;4966125;28;20448;-84
2022/09/24 08:11:32;;;;;;;2.30;0.50;;;13.90;84.60;;;;;;4962689;28;20118;-84
2022/09/24 08:13:59;;;;;;;0.47;0.47;;;13.90;84.70;;;;;;4952995;28;20417;-85
2022/09/24 08:16:25;;;;;;;0.50;0.40;;;13.90;84.40;;;;;;4958621;28;20049;-84
2022/09/24 08:18:53;;;;;;;1.75;0.45;;;14.00;84.50;;;;;;4962456;28;20030;-86
2022/09/24 08:21:19;;;;;;;1.77;0.35;;;14.00;84.40;;;;;;4983410;28;20034;-85
2022/09/24 08:23:45;;;;;;;1.02;0.50;;;14.00;84.40;;;;;;4965502;28;20046;-87
2022/09/24 08:26:12;;;;;;;0.57;0.50;;;14.00;84.40;;;;;;4972510;28;20045;-87
2022/09/24 08:28:40;;;;;;;1.10;0.60;;;14.00;84.20;;;;;;4967569;28;20034;-81
2022/09/24 08:31:09;;;;;;;1.90;0.50;;;14.00;84.20;;;;;;4977277;28;20043;-83
2022/09/24 08:33:36;;;;;;;0.65;0.40;;;14.00;84.20;;;;;;4931603;28;20472;-81
2022/09/24 08:36:08;;;;;;;1.67;0.40;;;14.00;84.40;;;;;;4980035;28;20128;-86
2022/09/24 08:38:34;;;;;;;0.90;0.60;;;14.10;84.50;;;;;;4979240;28;20617;-82
2022/09/24 08:41:12;;;;;;;1.73;0.70;;;14.10;84.70;;;;;;4948799;28;20048;-83
2022/09/24 08:43:54;;;;;;;0.75;0.50;;;14.10;84.70;;;;;;4961858;28;20453;-82
2022/09/24 08:49:46;;;;;;;1.20;0.50;;;14.10;84.80;;;;;;4967606;28;20559;-80
2022/09/24 08:52:31;;;;;;;0.52;0.52;;;14.20;84.80;;;;;;4964925;28;20419;-82
2022/09/24 08:55:03;;;;;;;0.70;0.70;;;14.10;84.80;;;;;;4979441;28;20030;-81
2022/09/24 08:57:35;;;;;;;1.85;0.40;;;14.20;84.90;;;;;;4979311;28;20563;-82
2022/09/24 09:00:02;;;;;;;0.52;0.50;;;14.20;85.00;;;;;;4963773;28;20617;-81
2022/09/24 09:02:42;;;;;;;1.40;0.40;;;14.10;84.80;;;;;;4980393;28;20041;-81
2022/09/24 09:05:42;;;;;;;1.13;0.50;;;14.20;84.80;;;;;;4966022;28;20042;-80
2022/09/24 09:08:13;;;;;;;0.40;0.25;;;14.20;85.00;;;;;;4982621;28;20119;-81
2022/09/24 09:10:41;;;;;;;0.60;0.60;;;14.20;85.00;;;;;;4966134;28;20052;-81
2022/09/24 09:13:14;;;;;;;0.82;0.30;;;14.20;85.00;;;;;;4966099;28;20434;-82
2022/09/24 09:15:49;;;;;;;0.20;0.20;;;14.20;84.80;;;;;;4983694;28;20035;-83
2022/09/24 09:18:24;;;;;;;0.65;0.30;;;14.20;85.40;;;;;;4983113;28;20038;-79
2022/09/24 09:20:51;;;;;;;1.48;0.55;;;14.20;84.80;;;;;;4984088;28;20019;-82
2022/09/24 09:23:40;;;;;;;0.40;0.35;;;14.30;84.80;;;;;;4971997;28;20453;-80
2022/09/24 09:26:11;;;;;;;1.10;0.47;;;14.30;84.80;;;;;;4965861;28;20041;-80
2022/09/24 09:28:37;;;;;;;1.98;0.45;;;14.30;84.80;;;;;;4985302;28;20034;-80
2022/09/24 09:31:18;;;;;;;0.40;0.40;;;14.30;84.70;;;;;;4983417;28;20047;-80
2022/09/24 09:34:03;;;;;;;0.90;0.30;;;14.30;84.70;;;;;;4964628;28;20505;-80
2022/09/24 09:36:29;;;;;;;0.73;0.43;;;14.30;85.10;;;;;;4968285;28;20038;-80
2022/09/24 09:39:19;;;;;;;0.40;0.30;;;14.30;85.10;;;;;;4982733;28;20029;-80
2022/09/24 09:41:49;;;;;;;0.50;0.30;;;14.30;84.50;;;;;;4982903;28;20269;-80
2022/09/24 09:44:28;;;;;;;1.05;0.52;;;14.30;84.30;;;;;;4952497;28;20045;-81
2022/09/24 09:47:21;;;;;;;2.30;0.30;;;14.30;84.20;;;;;;4951122;28;20049;-81
2022/09/24 09:49:51;;;;;;;0.40;0.30;;;14.30;84.30;;;;;;4984351;28;20085;-79
2022/09/24 09:52:20;;;;;;;0.40;0.30;;;14.30;85.00;;;;;;4953355;28;20418;-80
2022/09/24 09:54:47;;;;;;;0.47;0.47;;;14.20;84.50;;;;;;4982488;28;20042;-79
2022/09/24 09:57:17;;;;;;;1.05;0.60;;;14.20;84.60;;;;;;4967300;28;20476;-78
2022/09/24 09:59:49;;;;;;;1.85;0.50;;;14.20;84.60;;;;;;4965788;28;20117;-78
2022/09/24 10:02:30;;;;;;;0.47;0.40;;;14.20;84.60;;;;;;4964881;28;20494;-78
2022/09/24 10:04:58;;;;;;;0.95;0.45;;;14.20;84.70;;;;;;4981564;28;20050;-81
2022/09/24 10:07:24;;;;;;;0.38;0.38;;;14.20;84.70;;;;;;4982381;28;20482;-81
2022/09/24 10:10:01;;;;;;;1.30;0.55;;;14.20;84.80;;;;;;4984305;28;20487;-81
2022/09/24 10:12:28;;;;;;;0.35;0.35;;;14.20;84.90;;;;;;4966424;28;20048;-81
2022/09/24 10:15:14;;;;;;;0.60;0.40;;;14.20;85.00;;;;;;4965132;28;20039;-81
2022/09/24 10:17:42;;;;;;;0.65;0.50;;;14.20;84.90;;;;;;4981913;28;20034;-81
2022/09/24 10:20:16;;;;;;;1.05;0.50;;;14.20;84.80;;;;;;4982759;28;20034;-82
2022/09/24 10:22:51;;;;;;;0.80;0.30;;;14.30;84.70;;;;;;4965248;28;20085;-80
2022/09/24 10:25:23;;;;;;;1.10;0.50;;;14.30;84.60;;;;;;4952350;28;20038;-85
2022/09/24 10:27:50;;;;;;;0.52;0.40;;;14.30;84.40;;;;;;4967887;28;20039;-83
2022/09/24 10:30:34;;;;;;;1.63;0.40;;;14.30;84.40;;;;;;4981545;28;20044;-82
2022/09/24 10:33:03;;;;;;;0.60;0.47;;;14.30;84.90;;;;;;4966479;28;20042;-84
2022/09/24 10:35:33;;;;;;;1.15;0.52;;;14.30;85.00;;;;;;4956449;28;20046;-83
2022/09/24 10:38:00;;;;;;;0.60;0.45;;;14.30;85.10;;;;;;4953283;28;20046;-82
2022/09/24 10:40:39;;;;;;;0.82;0.50;;;14.30;84.90;;;;;;4963778;28;20039;-80
2022/09/24 10:43:06;;;;;;;1.75;0.40;;;14.30;85.00;;;;;;4963550;28;20039;-80
2022/09/24 10:45:56;;;;;;;0.73;0.40;;;14.40;85.00;;;;;;4963809;28;20026;-80
2022/09/24 10:48:26;;;;;;;0.65;0.50;;;14.40;85.00;;;;;;4954547;28;20133;-81
2022/09/24 10:51:17;;;;;;;1.05;0.60;;;14.40;84.90;;;;;;4964263;28;20039;-81
2022/09/24 10:54:15;;;;;;;4.07;1.00;;;14.30;84.90;;;;;;4948138;28;20082;-82
2022/09/24 10:56:48;;;;;;;0.80;0.50;;;14.40;84.90;;;;;;4940441;29;20039;-80
2022/09/24 10:59:22;;;;;;;0.70;0.50;;;14.40;84.80;;;;;;4915114;29;20040;-84
2022/09/24 11:02:00;;;;;;;0.50;0.45;;;14.40;84.50;;;;;;4911706;29;20118;-82
2022/09/24 11:04:26;;;;;;;0.88;0.50;;;14.40;84.80;;;;;;4925781;29;20479;-82
2022/09/24 11:07:35;;;;;;;0.70;0.50;;;14.40;84.80;;;;;;4925139;29;20051;-81
2022/09/24 11:10:31;;;;;;;0.68;0.40;;;14.40;85.00;;;;;;4864924;29;20045;-86
2022/09/24 11:13:06;;;;;;;0.40;0.40;;;14.40;84.80;;;;;;4949636;29;20110;-83
2022/09/24 11:16:09;;;;;;;0.93;0.80;;;14.40;84.80;;;;;;4934220;29;20046;-83
2022/09/24 11:18:38;;;;;;;5.18;0.77;;;14.40;85.30;;;;;;4951024;29;20047;-81
2022/09/24 11:21:15;;;;;;;0.85;0.50;;;14.40;85.50;;;;;;4956986;29;20089;-81
2022/09/24 11:23:44;;;;;;;1.27;0.52;;;14.40;85.30;;;;;;4938494;29;20418;-82
2022/09/24 11:26:38;;;;;;;1.13;0.52;;;14.50;85.30;;;;;;4940177;29;20123;-82
2022/09/24 11:29:24;;;;;;;0.63;0.50;;;14.40;85.70;;;;;;4950039;29;20043;-82
2022/09/24 11:32:28;;;;;;;1.60;0.60;;;14.50;85.10;;;;;;4940872;29;20035;-83
2022/09/24 11:35:11;;;;;;;0.80;0.80;;;14.50;85.40;;;;;;4964405;28;20031;-83
2022/09/24 11:37:55;;;;;;;1.05;0.70;;;14.50;85.30;;;;;;4983837;28;20038;-85
2022/09/24 11:40:33;;;;;;;0.52;0.40;;;14.40;85.30;;;;;;4979392;28;20035;-83
2022/09/24 11:43:14;;;;;;;1.48;0.70;;;14.40;85.60;;;;;;4965496;28;20071;-82
2022/09/24 11:46:04;;;;;;;1.15;0.60;;;14.40;85.40;;;;;;4985584;28;20050;-83
2022/09/24 11:49:00;;;;;;;0.93;0.80;;;14.50;85.50;;;;;;4944244;28;20497;-83
2022/09/24 11:51:35;;;;;;;1.23;0.75;;;14.40;85.40;;;;;;4965932;28;20116;-83
2022/09/24 11:54:20;;;;;;;1.58;0.73;;;14.40;85.40;;;;;;4985802;28;20070;-83
2022/09/24 11:56:59;;;;;;;0.93;0.60;;;14.40;85.40;;;;;;4985649;28;20069;-82
2022/09/24 11:59:44;;;;;;;1.23;0.60;;;14.40;85.40;;;;;;4965971;28;20042;-82
2022/09/24 12:02:31;;;;;;;1.10;0.73;;;14.40;85.40;;;;;;4976539;28;20053;-83
2022/09/24 12:05:08;;;;;;;0.93;0.70;;;14.40;85.50;;;;;;4980312;28;20520;-83
2022/09/24 12:08:08;;;;;;;1.38;0.68;;;14.40;85.40;;;;;;4940489;28;20066;-82
2022/09/24 12:10:51;;;;;;;1.30;0.80;;;14.40;85.50;;;;;;4908259;29;20047;-81
2022/09/24 12:13:19;;;;;;;1.42;0.52;;;14.40;85.50;;;;;;4911635;29;20046;-80
2022/09/24 12:15:55;;;;;;;0.70;0.52;;;14.40;85.50;;;;;;4902395;29;20040;-80
2022/09/24 12:18:49;;;;;;;0.80;0.75;;;14.40;85.80;;;;;;4903568;29;20036;-84
2022/09/24 12:21:25;;;;;;;0.77;0.70;;;14.40;85.70;;;;;;4863293;29;20100;-84
2022/09/24 12:23:54;;;;;;;0.70;0.60;;;14.50;85.30;;;;;;4857242;29;20033;-85
2022/09/24 12:26:24;;;;;;;1.30;0.70;;;14.50;85.70;;;;;;4860069;29;20541;-84
2022/09/24 12:35:18;;;;;;;1.08;0.40;;;14.50;85.70;;;;;;4859443;29;20057;-86
2022/09/24 12:37:46;;;;;;;0.57;0.50;;;14.50;85.50;;;;;;4821195;29;20037;-87
2022/09/24 12:40:50;;;;;;;1.05;0.75;;;14.50;85.40;;;;;;4858851;29;20072;-84
2022/09/24 12:43:33;;;;;;;0.73;0.60;;;14.50;85.50;;;;;;4802013;29;20418;-86
2022/09/24 12:46:02;;;;;;;1.33;0.50;;;14.50;85.30;;;;;;4830164;29;20053;-84
2022/09/24 12:48:31;;;;;;;0.75;0.65;;;14.50;85.10;;;;;;4897583;29;20044;-83
2022/09/24 12:50:59;;;;;;;0.60;0.60;;;14.50;85.10;;;;;;4894344;29;20056;-88
2022/09/24 12:53:35;;;;;;;0.28;0.28;;;14.50;85.30;;;;;;4848670;29;20048;-87
2022/09/24 12:56:03;;;;;;;1.23;0.60;;;14.50;85.10;;;;;;4881787;29;20036;-87
2022/09/24 12:58:59;;;;;;;0.73;0.52;;;14.50;85.10;;;;;;4883335;29;20036;-87
2022/09/24 13:02:36;;;;;;;0.52;0.47;;;14.50;85.20;;;;;;4815321;29;20038;-87
2022/09/24 13:06:01;;;;;;;1.73;0.75;;;14.50;85.10;;;;;;4811747;29;20065;-85
2022/09/24 13:08:49;;;;;;;1.27;0.68;;;14.50;85.10;;;;;;4806231;29;20038;-85
2022/09/24 13:15:07;;;;;;;1.17;0.80;;;14.50;85.50;;;;;;4797411;29;20046;-88
2022/09/24 13:17:37;;;;;;;0.70;0.68;;;14.40;85.40;;;;;;4832115;29;20042;-85
2022/09/24 13:20:15;;;;;;;0.68;0.65;;;14.40;85.50;;;;;;4853847;29;20037;-86
2022/09/24 13:22:42;;;;;;;0.75;0.47;;;14.40;85.50;;;;;;4879058;29;20053;-87
2022/09/24 13:25:17;;;;;;;1.38;0.60;;;14.40;85.50;;;;;;4871232;29;20095;-85
2022/09/24 13:27:54;;;;;;;;;;;14.40;85.40;;;;;;4878596;29;20044;-83
2022/09/24 13:30:34;;;;;;;0.60;0.45;;;14.40;85.50;;;;;;4877986;29;19975;-84
2022/09/24 13:33:22;;;;;;;1.50;0.63;;;14.40;85.30;;;;;;4944944;28;20034;-88
2022/09/24 13:36:06;;;;;;;0.80;0.60;;;14.40;85.40;;;;;;4961002;28;20564;-84
2022/09/24 13:38:55;;;;;;;0.85;0.52;;;14.40;85.30;;;;;;4946630;28;20161;-86
2022/09/24 13:41:36;;;;;;;1.38;0.73;;;14.40;85.30;;;;;;4980913;28;20030;-83